TAF KFTY
KFTY 270524Z 2706/2806 33004KT P6SM SKC FM271600 VRB03KT P6SM SKC FM272200 24006KT P6SM FEW250 FM272300 VRB03KT P6SM FEW250=
METAR KFTY
WC KFTY
WS KFTY
WV KFTY